createdAt,value
2022-12-16T00:01:59.498Z,99540.66
2022-12-16T00:04:27.252Z,99536.38
2022-12-16T00:06:55.170Z,99537.25
2022-12-16T00:09:23.112Z,99537.22
2022-12-16T00:11:51.358Z,99543.16
2022-12-16T00:14:21.251Z,99542.31
2022-12-16T00:16:49.094Z,99546.50
2022-12-16T00:19:16.806Z,99549.06
2022-12-16T00:21:44.598Z,99550.72
2022-12-16T00:24:12.520Z,99551.59
2022-12-16T00:26:40.470Z,99552.44
2022-12-16T00:29:11.122Z,99556.72
2022-12-16T00:31:40.433Z,99560.13
2022-12-16T00:34:08.498Z,99563.47
2022-12-16T00:36:36.676Z,99555.88
2022-12-16T00:39:04.865Z,99555.03
2022-12-16T00:41:32.835Z,99555.91
2022-12-16T00:44:01.103Z,99562.66
2022-12-16T00:46:28.954Z,99571.03
2022-12-16T00:48:58.624Z,99574.41
2022-12-16T00:51:27.053Z,99574.41
2022-12-16T00:53:54.956Z,99568.50
2022-12-16T00:56:23.137Z,99572.66
2022-12-16T00:58:51.430Z,99571.84
2022-12-16T01:01:19.352Z,99575.25
2022-12-16T01:03:47.940Z,99581.16
2022-12-16T01:06:18.644Z,99580.31
2022-12-16T01:08:48.444Z,99583.81
2022-12-16T01:11:18.428Z,99587.16
2022-12-16T01:13:47.744Z,99582.88
2022-12-16T01:16:15.977Z,99592.13
2022-12-16T01:18:43.885Z,99595.50
2022-12-16T01:21:14.962Z,99606.47
2022-12-16T01:23:44.145Z,99606.44
2022-12-16T01:26:17.222Z,99595.44
2022-12-16T01:28:45.337Z,99601.41
2022-12-16T01:31:19.191Z,99602.19
2022-12-16T01:33:47.940Z,99605.59
2022-12-16T01:36:16.535Z,99608.94
2022-12-16T01:38:46.017Z,99601.38
2022-12-16T01:41:15.951Z,99604.72
2022-12-16T01:43:45.738Z,99604.81
2022-12-16T01:46:19.807Z,99602.22
2022-12-16T01:48:52.316Z,99593.75
2022-12-16T01:51:25.035Z,99597.16
2022-12-16T01:53:58.891Z,99604.78
2022-12-16T01:56:29.492Z,99601.41
2022-12-16T01:58:58.505Z,99604.81
2022-12-16T02:01:26.757Z,99608.13
2022-12-16T02:03:57.432Z,99609.78
2022-12-16T02:06:25.632Z,99606.41
2022-12-16T02:08:58.863Z,99609.78
2022-12-16T02:11:47.469Z,99595.47
2022-12-16T02:14:34.755Z,99604.69
2022-12-16T02:17:12.475Z,99601.25
2022-12-16T02:20:09.984Z,99596.19
2022-12-16T02:22:57.135Z,99598.72
2022-12-16T02:25:53.798Z,99604.63
2022-12-16T02:28:40.250Z,99606.25
2022-12-16T02:31:24.614Z,99598.63
2022-12-16T02:34:09.408Z,99604.50
2022-12-16T02:36:54.286Z,99605.44
2022-12-16T02:39:24.705Z,99604.56
2022-12-16T02:42:01.494Z,99602.00
2022-12-16T02:44:37.284Z,99595.16
2022-12-16T02:47:06.381Z,99605.34
2022-12-16T02:49:47.531Z,99604.56
2022-12-16T02:52:16.340Z,99602.75
2022-12-16T02:54:45.833Z,99606.06
2022-12-16T02:57:27.485Z,99599.34
2022-12-16T03:00:03.175Z,99598.44
2022-12-16T03:02:43.024Z,99608.50
2022-12-16T03:05:15.682Z,99600.91
2022-12-16T03:07:45.189Z,99609.34
2022-12-16T03:10:17.064Z,99614.44
2022-12-16T03:12:46.520Z,99619.56
2022-12-16T03:15:19.757Z,99620.34
2022-12-16T03:17:52.407Z,99623.63
2022-12-16T03:20:27.569Z,99620.28
2022-12-16T03:22:58.507Z,99625.28
2022-12-16T03:25:28.117Z,99627.81
2022-12-16T03:28:04.655Z,99638.75
2022-12-16T03:30:37.428Z,99629.44
2022-12-16T03:33:16.685Z,99637.00
2022-12-16T03:35:50.393Z,99629.41
2022-12-16T03:38:19.712Z,99635.34
2022-12-16T03:40:47.388Z,99636.19
2022-12-16T03:43:16.335Z,99636.16
2022-12-16T03:45:46.983Z,99634.53
2022-12-16T03:48:17.304Z,99651.34
2022-12-16T03:50:44.957Z,99657.25
2022-12-16T03:53:12.593Z,99653.06
2022-12-16T03:55:40.703Z,99658.97
2022-12-16T03:58:08.397Z,99654.75
2022-12-16T04:00:36.050Z,99660.59
2022-12-16T04:03:03.858Z,99653.06
2022-12-16T04:05:32.988Z,99659.78
2022-12-16T04:08:02.257Z,99660.59
2022-12-16T04:10:47.882Z,99665.69
2022-12-16T04:13:33.677Z,99666.63
2022-12-16T04:16:19.405Z,99670.75
2022-12-16T04:19:06.929Z,99668.31
2022-12-16T04:21:53.445Z,99664.13
2022-12-16T04:24:27.405Z,99676.91
2022-12-16T04:27:15.709Z,99671.72
2022-12-16T04:29:57.742Z,99683.56
2022-12-16T04:32:25.720Z,99680.28
2022-12-16T04:34:52.839Z,99686.13
2022-12-16T04:37:39.527Z,99690.41
2022-12-16T04:40:34.302Z,99699.66
2022-12-16T04:43:19.622Z,99698.88
2022-12-16T04:46:05.574Z,99704.69
2022-12-16T04:48:59.033Z,99702.19
2022-12-16T04:51:44.158Z,99706.34
2022-12-16T04:54:30.570Z,99702.97
2022-12-16T04:57:15.769Z,99710.47
2022-12-16T05:00:01.022Z,99723.97
2022-12-16T05:02:46.347Z,99713.97
2022-12-16T05:05:31.756Z,99731.69
2022-12-16T05:08:16.937Z,99730.84
2022-12-16T05:11:04.136Z,99734.38
2022-12-16T05:13:49.383Z,99745.13
2022-12-16T05:16:34.704Z,99745.97
2022-12-16T05:19:20.334Z,99751.78
2022-12-16T05:22:06.215Z,99752.63
2022-12-16T05:24:53.056Z,99754.44
2022-12-16T05:27:39.762Z,99766.16
2022-12-16T05:30:31.974Z,99766.91
2022-12-16T05:33:19.286Z,99766.84
2022-12-16T05:36:04.692Z,99774.19
2022-12-16T05:38:50.119Z,99783.56
2022-12-16T05:41:35.499Z,99785.13
2022-12-16T05:44:22.337Z,99793.41
2022-12-16T05:47:07.564Z,99790.81
2022-12-16T05:49:49.311Z,99800.97
2022-12-16T05:52:34.719Z,99798.56
2022-12-16T05:55:19.847Z,99805.31
2022-12-16T05:58:08.191Z,99813.00
2022-12-16T06:00:55.612Z,99814.47
2022-12-16T06:03:41.102Z,99820.28
2022-12-16T06:06:27.181Z,99820.25
2022-12-16T06:09:12.529Z,99827.91
2022-12-16T06:11:57.573Z,99838.66
2022-12-16T06:14:42.793Z,99832.13
2022-12-16T06:17:29.768Z,99841.19
2022-12-16T06:20:15.175Z,99843.59
2022-12-16T06:23:00.425Z,99852.78
2022-12-16T06:25:45.513Z,99852.88
2022-12-16T06:28:31.552Z,99852.72
2022-12-16T06:31:16.683Z,99852.59
2022-12-16T06:34:03.043Z,99862.94
2022-12-16T06:36:48.324Z,99873.63
2022-12-16T06:39:33.267Z,99878.47
2022-12-16T06:42:18.850Z,99874.63
2022-12-16T06:45:03.945Z,99884.50
2022-12-16T06:47:45.535Z,99884.47
2022-12-16T06:50:45.129Z,99897.72
2022-12-16T06:53:31.162Z,99893.63
2022-12-16T06:56:16.427Z,99901.22
2022-12-16T06:59:01.836Z,99897.97
2022-12-16T07:01:47.658Z,99908.03
2022-12-16T07:04:33.254Z,99914.94
2022-12-16T07:07:21.879Z,99913.47
2022-12-16T07:10:07.067Z,99915.09
2022-12-16T07:12:52.158Z,99925.19
2022-12-16T07:15:37.682Z,99926.28
2022-12-16T07:18:23.321Z,99933.78
2022-12-16T07:21:08.426Z,99939.56
2022-12-16T07:23:55.656Z,99943.75
2022-12-16T07:26:41.437Z,99946.22
2022-12-16T07:29:26.633Z,99948.91
2022-12-16T07:32:11.899Z,99949.91
2022-12-16T07:34:57.291Z,99966.56
2022-12-16T07:37:53.900Z,99968.28
2022-12-16T07:40:40.434Z,99973.53
2022-12-16T07:43:27.933Z,99978.03
2022-12-16T07:46:13.602Z,99974.78
2022-12-16T07:48:59.142Z,99971.66
2022-12-16T07:51:44.294Z,99985.06
2022-12-16T07:54:29.574Z,99990.13
2022-12-16T07:57:16.405Z,99993.56
2022-12-16T08:00:01.617Z,99994.50
2022-12-16T08:02:57.207Z,99997.25
2022-12-16T08:05:42.781Z,100005.94
2022-12-16T08:08:28.173Z,100018.47
2022-12-16T08:11:09.833Z,100016.97
2022-12-16T08:13:56.601Z,100020.63
2022-12-16T08:16:45.058Z,100018.28
2022-12-16T08:19:30.599Z,100025.84
2022-12-16T08:22:14.949Z,100030.88
2022-12-16T08:25:00.023Z,100037.03
2022-12-16T08:27:45.161Z,100033.75
2022-12-16T08:30:32.252Z,100038.81
2022-12-16T08:33:19.667Z,100031.41
2022-12-16T08:36:05.945Z,100037.38
2022-12-16T08:39:03.676Z,100051.91
2022-12-16T08:41:49.169Z,100043.50
2022-12-16T08:44:34.655Z,100048.66
2022-12-16T08:47:21.244Z,100062.09
2022-12-16T08:50:07.944Z,100068.09
2022-12-16T08:52:53.013Z,100069.06
2022-12-16T08:55:38.273Z,100067.47
2022-12-16T08:58:23.447Z,100069.22
2022-12-16T09:01:08.618Z,100071.13
2022-12-16T09:03:55.529Z,100073.66
2022-12-16T09:06:41.599Z,100079.66
2022-12-16T09:09:27.360Z,100081.38
2022-12-16T09:12:14.841Z,100085.69
2022-12-16T09:14:59.958Z,100086.56
2022-12-16T09:17:45.401Z,100090.03
2022-12-16T09:20:32.163Z,100091.75
2022-12-16T09:23:20.390Z,100096.00
2022-12-16T09:26:05.698Z,100090.94
2022-12-16T09:28:50.329Z,100097.81
2022-12-16T09:31:35.871Z,100100.34
2022-12-16T09:34:21.476Z,100099.56
2022-12-16T09:37:07.743Z,100097.97
2022-12-16T09:39:52.951Z,100098.78
2022-12-16T09:42:44.809Z,100097.16
2022-12-16T09:45:42.489Z,100100.59
2022-12-16T09:48:30.972Z,100104.00
2022-12-16T09:51:20.910Z,100096.56
2022-12-16T09:54:10.373Z,100102.53
2022-12-16T09:56:55.932Z,100096.69
2022-12-16T09:59:46.208Z,100101.84
2022-12-16T10:02:36.067Z,100103.56
2022-12-16T10:05:27.970Z,100106.19
2022-12-16T10:08:20.697Z,100103.72
2022-12-16T10:11:13.854Z,100113.13
2022-12-16T10:14:07.066Z,100111.47
2022-12-16T10:17:01.283Z,100112.31
2022-12-16T10:19:57.441Z,100108.97
2022-12-16T10:22:51.390Z,100108.13
2022-12-16T10:25:41.389Z,100115.75
2022-12-16T10:28:35.667Z,100115.88
2022-12-16T10:31:24.599Z,100121.84
2022-12-16T10:34:12.194Z,100121.03
2022-12-16T10:37:16.365Z,100126.94
2022-12-16T10:40:11.162Z,100125.31
2022-12-16T10:43:05.044Z,100127.06
2022-12-16T10:45:56.675Z,100113.63
2022-12-16T10:48:54.931Z,100115.31
2022-12-16T10:51:43.346Z,100112.00
2022-12-16T10:54:44.252Z,100113.75
2022-12-16T10:57:38.090Z,100120.53
2022-12-16T11:00:28.565Z,100124.75
2022-12-16T11:03:15.572Z,100118.88
2022-12-16T11:06:01.496Z,100116.31
2022-12-16T11:08:49.416Z,100114.72
2022-12-16T11:11:40.763Z,100118.91
2022-12-16T11:15:12.503Z,100117.22
2022-12-16T11:17:55.906Z,100113.84
2022-12-16T11:20:44.857Z,100120.66
2022-12-16T11:23:38.200Z,100123.19
2022-12-16T11:26:36.035Z,100129.97
2022-12-16T11:29:30.601Z,100133.38
2022-12-16T11:32:20.082Z,100131.69
2022-12-16T11:35:12.146Z,100128.34
2022-12-16T11:38:01.455Z,100138.50
2022-12-16T11:40:48.648Z,100139.34
2022-12-16T11:43:37.137Z,100141.03
2022-12-16T11:46:28.552Z,100134.28
2022-12-16T11:49:23.429Z,100142.81
2022-12-16T11:52:35.840Z,100137.84
2022-12-16T11:56:03.384Z,100143.72
2022-12-16T11:58:42.884Z,100153.03
2022-12-16T12:01:33.746Z,100152.22
2022-12-16T12:04:18.998Z,100153.03
2022-12-16T12:07:20.401Z,100150.53
2022-12-16T12:10:13.264Z,100154.84
2022-12-16T12:13:04.266Z,100159.03
2022-12-16T12:15:56.050Z,100159.16
2022-12-16T12:18:48.222Z,100157.41
2022-12-16T12:21:41.303Z,100164.25
2022-12-16T12:24:37.475Z,100159.13
2022-12-16T12:27:28.210Z,100162.47
2022-12-16T12:30:23.418Z,100165.97
2022-12-16T12:33:24.653Z,100168.47
2022-12-16T12:36:19.113Z,100167.63
2022-12-16T12:39:16.213Z,100175.31
2022-12-16T12:42:20.156Z,100175.34
2022-12-16T12:45:22.945Z,100178.75
2022-12-16T12:48:17.666Z,100177.16
2022-12-16T12:51:13.146Z,100178.75
2022-12-16T12:54:20.266Z,100186.47
2022-12-16T12:57:05.619Z,100190.69
2022-12-16T13:00:02.731Z,100188.97
2022-12-16T13:03:04.248Z,100194.09
2022-12-16T13:05:53.360Z,100195.78
2022-12-16T13:09:00.523Z,100206.78
2022-12-16T13:11:45.996Z,100207.63
2022-12-16T13:15:08.651Z,100214.41
2022-12-16T13:18:49.484Z,100205.09
2022-12-16T13:22:04.175Z,100217.78
2022-12-16T13:25:03.110Z,100210.19
2022-12-16T13:28:03.958Z,100213.50
2022-12-16T13:30:52.183Z,100221.97
2022-12-16T13:33:47.441Z,100233.88
2022-12-16T13:36:35.187Z,100234.72
2022-12-16T13:39:41.238Z,100231.31
2022-12-16T13:42:53.830Z,100235.56
2022-12-16T13:45:51.358Z,100240.63
2022-12-16T13:48:59.650Z,100246.53
2022-12-16T13:52:17.534Z,100252.47
2022-12-16T13:55:10.294Z,100251.66
2022-12-16T13:58:00.481Z,100254.19
2022-12-16T14:00:47.294Z,100258.41
2022-12-16T14:03:38.949Z,100267.72
2022-12-16T14:06:35.022Z,100270.22
2022-12-16T14:09:22.953Z,100265.16
2022-12-16T14:12:29.687Z,100271.06
2022-12-16T14:15:21.078Z,100280.38
2022-12-16T14:18:13.804Z,100285.41
2022-12-16T14:21:15.865Z,100277.78
2022-12-16T14:24:07.891Z,100293.00
2022-12-16T14:26:54.881Z,100285.41
2022-12-16T14:29:47.352Z,100298.06
2022-12-16T14:32:44.274Z,100298.88
2022-12-16T14:35:32.424Z,100306.50
2022-12-16T14:38:31.075Z,100314.94
2022-12-16T14:41:17.698Z,100317.47
2022-12-16T14:44:02.999Z,100318.34
2022-12-16T14:46:51.189Z,100329.31
2022-12-16T14:49:39.704Z,100331.91
2022-12-16T14:52:37.571Z,100331.03
2022-12-16T14:55:31.295Z,100342.00
2022-12-16T14:58:28.238Z,100341.94
2022-12-16T15:01:16.640Z,100350.38
2022-12-16T15:04:04.430Z,100352.06
2022-12-16T15:06:56.518Z,100353.69
2022-12-16T15:09:47.916Z,100355.34
2022-12-16T15:12:37.151Z,100362.13
2022-12-16T15:15:28.466Z,100367.97
2022-12-16T15:18:16.238Z,100365.38
2022-12-16T15:21:09.190Z,100376.34
2022-12-16T15:23:58.538Z,100383.09
2022-12-16T15:26:46.580Z,100392.31
2022-12-16T15:29:47.981Z,100395.69
2022-12-16T15:32:52.234Z,100398.19
2022-12-16T15:35:49.153Z,100402.38
2022-12-16T15:38:46.560Z,100400.56
2022-12-16T15:41:41.134Z,100409.81
2022-12-16T15:44:34.002Z,100420.75
2022-12-16T15:47:15.781Z,100416.50
2022-12-16T15:50:06.052Z,100413.97
2022-12-16T15:52:55.217Z,100427.63
2022-12-16T15:55:47.423Z,100427.63
2022-12-16T15:58:38.658Z,100426.75
2022-12-16T16:01:25.422Z,100437.72
2022-12-16T16:04:12.249Z,100440.34
2022-12-16T16:07:03.630Z,100443.78
2022-12-16T16:09:50.698Z,100445.34
2022-12-16T16:12:37.796Z,100451.22
2022-12-16T16:15:24.968Z,100459.59
2022-12-16T16:18:13.898Z,100462.91
2022-12-16T16:20:59.727Z,100467.06
2022-12-16T16:23:46.380Z,100470.38
2022-12-16T16:26:32.981Z,100470.25
2022-12-16T16:29:18.773Z,100471.09
2022-12-16T16:32:04.994Z,100473.56
2022-12-16T16:34:50.341Z,100480.38
2022-12-16T16:37:37.895Z,100483.81
2022-12-16T16:40:36.247Z,100483.00
2022-12-16T16:43:21.374Z,100490.78
2022-12-16T16:46:12.520Z,100494.16
2022-12-16T16:48:58.514Z,100496.78
2022-12-16T16:51:44.529Z,100501.97
2022-12-16T16:54:29.653Z,100506.13
2022-12-16T16:57:19.253Z,100504.28
2022-12-16T17:00:04.394Z,100507.69
2022-12-16T17:02:49.777Z,100511.81
2022-12-16T17:05:35.039Z,100508.44
2022-12-16T17:08:20.294Z,100514.47
2022-12-16T17:11:06.079Z,100525.28
2022-12-16T17:13:53.003Z,100531.97
2022-12-16T17:16:38.089Z,100531.16
2022-12-16T17:19:23.525Z,100530.25
2022-12-16T17:22:08.818Z,100531.16
2022-12-16T17:24:54.107Z,100536.06
2022-12-16T17:27:42.178Z,100541.03
2022-12-16T17:30:33.926Z,100541.91
2022-12-16T17:33:19.063Z,100547.13
2022-12-16T17:36:07.258Z,100548.69
2022-12-16T17:38:55.352Z,100546.16
2022-12-16T17:41:40.857Z,100558.88
2022-12-16T17:44:26.093Z,100555.28
2022-12-16T17:47:12.550Z,100560.28
2022-12-16T17:49:57.598Z,100567.81
2022-12-16T17:52:42.751Z,100573.72
2022-12-16T17:55:28.817Z,100573.81
2022-12-16T17:58:14.130Z,100577.09
2022-12-16T18:00:59.253Z,100582.88
2022-12-16T18:03:46.870Z,100590.50
2022-12-16T18:06:32.414Z,100597.28
2022-12-16T18:09:26.384Z,100594.66
2022-12-16T18:12:11.519Z,100600.59
2022-12-16T18:15:05.028Z,100596.38
2022-12-16T18:17:50.274Z,100600.59
2022-12-16T18:20:37.022Z,100602.28
2022-12-16T18:23:22.194Z,100596.28
2022-12-16T18:26:15.881Z,100600.44
2022-12-16T18:29:01.014Z,100614.13
2022-12-16T18:31:46.083Z,100607.34
2022-12-16T18:34:31.543Z,100615.13
2022-12-16T18:37:18.064Z,100617.50
2022-12-16T18:40:03.319Z,100622.47
2022-12-16T18:42:49.338Z,100623.25
2022-12-16T18:45:35.029Z,100623.44
2022-12-16T18:48:20.452Z,100638.47
2022-12-16T18:51:11.545Z,100642.53
2022-12-16T18:53:58.221Z,100648.91
2022-12-16T18:56:44.142Z,100649.53
2022-12-16T18:59:29.511Z,100651.22
2022-12-16T19:02:15.227Z,100653.53
2022-12-16T19:05:00.814Z,100662.75
2022-12-16T19:07:42.920Z,100662.84
2022-12-16T19:10:29.444Z,100661.09
2022-12-16T19:13:15.229Z,100668.59
2022-12-16T19:16:00.923Z,100671.88
2022-12-16T19:18:46.432Z,100674.44
2022-12-16T19:21:32.457Z,100678.00
2022-12-16T19:24:17.996Z,100687.31
2022-12-16T19:27:06.527Z,100692.19
2022-12-16T19:29:56.273Z,100698.19
2022-12-16T19:32:41.333Z,100694.63
2022-12-16T19:35:29.288Z,100698.66
2022-12-16T19:38:14.742Z,100702.91
2022-12-16T19:41:08.592Z,100708.75
2022-12-16T19:44:01.783Z,100702.81
2022-12-16T19:46:50.520Z,100715.09
2022-12-16T19:49:40.784Z,100719.19
2022-12-16T19:52:29.215Z,100726.69
2022-12-16T19:55:23.064Z,100731.88
2022-12-16T19:58:08.633Z,100733.25
2022-12-16T20:00:56.415Z,100734.75
2022-12-16T20:03:41.906Z,100733.88
2022-12-16T20:06:28.465Z,100744.75
2022-12-16T20:09:14.713Z,100737.16
2022-12-16T20:12:00.996Z,100751.56
2022-12-16T20:14:46.504Z,100761.78
2022-12-16T20:17:33.712Z,100761.78
2022-12-16T20:20:19.126Z,100762.50
2022-12-16T20:23:04.629Z,100763.31
2022-12-16T20:25:49.711Z,100761.66
2022-12-16T20:28:34.833Z,100767.47
2022-12-16T20:31:20.509Z,100763.31
2022-12-16T20:34:11.618Z,100766.66
2022-12-16T20:36:56.772Z,100766.03
2022-12-16T20:39:42.111Z,100767.66
2022-12-16T20:42:27.369Z,100764.56
2022-12-16T20:45:12.630Z,100767.03
2022-12-16T20:47:57.945Z,100768.31
2022-12-16T20:50:44.688Z,100773.22
2022-12-16T20:53:30.170Z,100782.34
2022-12-16T20:56:19.668Z,100781.44
2022-12-16T20:59:01.213Z,100792.97
2022-12-16T21:02:14.599Z,100803.97
2022-12-16T21:04:51.618Z,100804.03
2022-12-16T21:07:38.470Z,100797.97
2022-12-16T21:10:24.953Z,100806.13
2022-12-16T21:13:10.294Z,100815.19
2022-12-16T21:15:56.215Z,100822.69
2022-12-16T21:18:42.078Z,100831.81
2022-12-16T21:21:27.601Z,100832.66
2022-12-16T21:24:14.478Z,100841.03
2022-12-16T21:26:59.561Z,100843.03
2022-12-16T21:29:45.056Z,100845.38
2022-12-16T21:32:30.458Z,100850.28
2022-12-16T21:35:15.756Z,100852.53
2022-12-16T21:38:00.994Z,100860.16
2022-12-16T21:40:47.433Z,100876.06
2022-12-16T21:43:34.294Z,100867.47
2022-12-16T21:46:18.763Z,100872.50
2022-12-16T21:49:03.889Z,100874.91
2022-12-16T21:52:00.409Z,100876.41
2022-12-16T21:54:46.056Z,100887.28
2022-12-16T21:57:32.635Z,100879.53
2022-12-16T22:00:18.049Z,100894.53
2022-12-16T22:03:03.429Z,100892.63
2022-12-16T22:05:48.851Z,100891.56
2022-12-16T22:08:34.489Z,100904.09
2022-12-16T22:11:27.529Z,100908.28
2022-12-16T22:14:14.005Z,100915.69
2022-12-16T22:16:59.253Z,100926.38
2022-12-16T22:19:56.481Z,100940.22
2022-12-16T22:22:41.721Z,100936.22
2022-12-16T22:25:27.473Z,100943.19
2022-12-16T22:28:12.529Z,100939.88
2022-12-16T22:30:59.091Z,100951.66
2022-12-16T22:33:44.512Z,100950.63
2022-12-16T22:36:32.137Z,100957.31
2022-12-16T22:39:17.353Z,100963.06
2022-12-16T22:42:02.641Z,100972.41
2022-12-16T22:44:47.765Z,100979.31
2022-12-16T22:47:45.892Z,100968.59
2022-12-16T22:50:31.003Z,100980.56
2022-12-16T22:53:16.319Z,100984.72
2022-12-16T22:56:02.229Z,100985.50
2022-12-16T22:58:47.589Z,100989.19
2022-12-16T23:01:32.737Z,100983.44
2022-12-16T23:04:19.589Z,100972.69
2022-12-16T23:07:04.844Z,100987.41
2022-12-16T23:09:49.868Z,100987.06
2022-12-16T23:12:34.956Z,100989.69
2022-12-16T23:15:20.562Z,100995.59
2022-12-16T23:18:05.856Z,101002.41
2022-12-16T23:20:53.078Z,101002.34
2022-12-16T23:23:42.673Z,101003.03
2022-12-16T23:26:28.133Z,101007.63
2022-12-16T23:29:13.351Z,101004.81
2022-12-16T23:31:59.023Z,101016.28
2022-12-16T23:34:46.208Z,101003.63
2022-12-16T23:37:33.092Z,101011.16
2022-12-16T23:40:18.032Z,101017.44
2022-12-16T23:43:03.769Z,101022.41
2022-12-16T23:45:49.045Z,101028.16
2022-12-16T23:48:34.845Z,101019.06
2022-12-16T23:51:20.836Z,101016.50
2022-12-16T23:54:07.660Z,101009.22
2022-12-16T23:56:52.910Z,101005.41
2022-12-16T23:59:43.820Z,101008.91
